Time;durP1;ratioP1;P1;durP2;ratioP2;P2;SDS_P1;SDS_P2;PMS_P1;PMS_P2;Temp;Humidity;BMP_temperature;BMP_pressure;BME280_temperature;BME280_humidity;BME280_pressure;Samples;Min_cycle;Max_cycle;Signal;HPM_P1;HPM_P2
2022/06/29 00:00:24;;;;;;;1999.90;999.90;;;;;;;;;;5091854;27;20403;-71
2022/06/29 00:02:52;;;;;;;1999.90;999.90;;;;;;;;;;5088410;27;20454;-72
2022/06/29 00:05:22;;;;;;;1999.90;999.90;;;;;;;;;;5107514;22;20390;-75
2022/06/29 00:07:50;;;;;;;1999.90;999.90;;;;;;;;;;5118767;27;20389;-75
2022/06/29 00:10:18;;;;;;;1999.90;999.90;;;;;;;;;;5103107;27;20393;-75
2022/06/29 00:12:47;;;;;;;1999.90;999.90;;;;;;;;;;5119849;27;20484;-75
2022/06/29 00:15:15;;;;;;;1999.90;999.90;;;;;;;;;;5121851;27;20425;-75
2022/06/29 00:17:43;;;;;;;1999.90;999.90;;;;;;;;;;5118931;27;20401;-74
2022/06/29 00:20:13;;;;;;;1999.90;999.90;;;;;;;;;;5121864;27;20914;-74
2022/06/29 00:22:42;;;;;;;1999.90;999.90;;;;;;;;;;5151536;22;20421;-71
2022/06/29 00:25:11;;;;;;;1999.90;999.90;;;;;;;;;;5136480;27;20405;-75
2022/06/29 00:27:39;;;;;;;1999.90;999.90;;;;;;;;;;5125997;27;20514;-73
2022/06/29 00:30:08;;;;;;;1999.90;999.90;;;;;;;;;;5127664;27;20392;-71
2022/06/29 00:32:36;;;;;;;1999.90;999.90;;;;;;;;;;5143845;27;20406;-69
2022/06/29 00:35:04;;;;;;;1999.90;999.90;;;;;;;;;;5126335;27;20428;-69
2022/06/29 00:37:32;;;;;;;1999.90;999.90;;;;;;;;;;5124840;27;20418;-70
2022/06/29 00:40:02;;;;;;;1999.90;999.90;;;;;;;;;;5143309;27;20399;-72
2022/06/29 00:42:30;;;;;;;1999.90;999.90;;;;;;;;;;5123481;27;20408;-69
2022/06/29 00:44:58;;;;;;;1999.90;999.90;;;;;;;;;;5144539;27;20416;-70
2022/06/29 00:47:26;;;;;;;1999.90;999.90;;;;;;;;;;5126547;27;20991;-70
2022/06/29 00:49:54;;;;;;;1999.90;999.90;;;;;;;;;;5127034;27;20480;-72
2022/06/29 00:52:24;;;;;;;1999.90;999.90;;;;;;;;;;5105956;27;20523;-72
2022/06/29 00:54:53;;;;;;;1999.90;999.90;;;;;;;;;;5122250;27;20797;-72
2022/06/29 00:57:23;;;;;;;1999.90;999.90;;;;;;;;;;5124379;27;20392;-72
2022/06/29 00:59:52;;;;;;;1999.90;999.90;;;;;;;;;;5144899;27;21172;-72
2022/06/29 01:02:20;;;;;;;1999.90;999.90;;;;;;;;;;5142507;27;21196;-72
2022/06/29 01:04:48;;;;;;;1999.90;999.90;;;;;;;;;;5124567;27;20384;-72
2022/06/29 01:07:17;;;;;;;1999.90;999.90;;;;;;;;;;5143958;27;20388;-72
2022/06/29 01:09:45;;;;;;;1999.90;999.90;;;;;;;;;;5126763;27;20483;-72
2022/06/29 01:12:13;;;;;;;1999.90;999.90;;;;;;;;;;5126018;27;20439;-69
2022/06/29 01:14:43;;;;;;;1999.90;999.90;;;;;;;;;;5141772;27;20411;-70
2022/06/29 01:17:11;;;;;;;1999.90;999.90;;;;;;;;;;5125098;27;20487;-69
2022/06/29 01:19:40;;;;;;;1999.90;999.90;;;;;;;;;;5122970;27;20489;-70
2022/06/29 01:22:10;;;;;;;1999.90;999.90;;;;;;;;;;5141941;27;20880;-70
2022/06/29 01:24:38;;;;;;;1999.90;999.90;;;;;;;;;;5122084;27;20392;-69
2022/06/29 01:27:06;;;;;;;1999.90;999.90;;;;;;;;;;5124815;27;20500;-70
2022/06/29 01:29:34;;;;;;;1999.90;999.90;;;;;;;;;;5144176;27;20806;-70
2022/06/29 01:32:02;;;;;;;1999.90;999.90;;;;;;;;;;5107503;27;20500;-70
2022/06/29 01:34:32;;;;;;;1999.90;999.90;;;;;;;;;;5124654;27;20425;-70
2022/06/29 01:37:00;;;;;;;1999.90;999.90;;;;;;;;;;5142610;27;20392;-70
2022/06/29 01:39:29;;;;;;;1999.90;999.90;;;;;;;;;;5144057;27;20392;-70
2022/06/29 01:41:57;;;;;;;1999.90;999.90;;;;;;;;;;5121987;27;20420;-71
2022/06/29 01:44:25;;;;;;;1999.90;999.90;;;;;;;;;;5123045;27;20528;-71
2022/06/29 01:46:53;;;;;;;1999.90;999.90;;;;;;;;;;5118654;27;20995;-71
2022/06/29 01:49:23;;;;;;;1999.90;999.90;;;;;;;;;;5123425;27;32325;-74
2022/06/29 01:51:51;;;;;;;1999.90;999.90;;;;;;;;;;5123667;27;20404;-71
2022/06/29 01:54:19;;;;;;;1999.90;999.90;;;;;;;;;;5144609;27;21247;-70
2022/06/29 01:56:48;;;;;;;1999.90;999.90;;;;;;;;;;5120883;27;20380;-70
2022/06/29 01:59:16;;;;;;;1999.90;999.90;;;;;;;;;;5145829;27;21127;-70
2022/06/29 02:01:45;;;;;;;1999.90;999.90;;;;;;;;;;5142013;27;20403;-69
2022/06/29 02:04:13;;;;;;;1999.90;999.90;;;;;;;;;;5118416;27;20403;-70
2022/06/29 02:06:41;;;;;;;1999.90;999.90;;;;;;;;;;5123358;27;20408;-70
2022/06/29 02:09:09;;;;;;;1999.90;999.90;;;;;;;;;;5123343;27;21825;-70
2022/06/29 02:11:37;;;;;;;1999.90;999.90;;;;;;;;;;5139947;27;20396;-70
2022/06/29 02:14:06;;;;;;;1999.90;999.90;;;;;;;;;;5125620;27;20456;-70
2022/06/29 02:16:34;;;;;;;1999.90;999.90;;;;;;;;;;5141924;27;20461;-70
2022/06/29 02:19:02;;;;;;;1999.90;999.90;;;;;;;;;;5125113;27;20483;-70
2022/06/29 02:21:30;;;;;;;1999.90;999.90;;;;;;;;;;5124000;27;20494;-71
2022/06/29 02:23:58;;;;;;;1999.90;999.90;;;;;;;;;;5119614;27;20396;-70
2022/06/29 02:26:26;;;;;;;1999.90;999.90;;;;;;;;;;5143661;27;20416;-71
2022/06/29 02:28:54;;;;;;;1999.90;999.90;;;;;;;;;;5104685;27;20564;-71
2022/06/29 02:36:55;;;;;;;1999.90;999.90;;;;;;;;;;5125421;27;20441;-71
2022/06/29 02:39:23;;;;;;;1999.90;999.90;;;;;;;;;;5107646;27;20404;-71
2022/06/29 02:41:50;;;;;;;1999.90;999.90;;;;;;;;;;5140922;27;20427;-70
2022/06/29 02:44:18;;;;;;;1999.90;999.90;;;;;;;;;;5143314;27;20396;-70
2022/06/29 02:46:47;;;;;;;1999.90;999.90;;;;;;;;;;5142328;27;20501;-70
2022/06/29 02:49:15;;;;;;;1999.90;999.90;;;;;;;;;;5144356;27;20427;-71
2022/06/29 02:51:43;;;;;;;1999.90;999.90;;;;;;;;;;5141280;27;20404;-70
2022/06/29 02:54:11;;;;;;;1999.90;999.90;;;;;;;;;;5138779;27;20875;-70
2022/06/29 02:56:39;;;;;;;1999.90;999.90;;;;;;;;;;5141502;27;20416;-70
2022/06/29 02:59:07;;;;;;;1999.90;999.90;;;;;;;;;;5123187;27;20466;-71
2022/06/29 03:01:35;;;;;;;1999.90;999.90;;;;;;;;;;5120401;27;20392;-70
2022/06/29 03:04:04;;;;;;;1999.90;999.90;;;;;;;;;;5122777;27;20392;-70
2022/06/29 03:06:32;;;;;;;1999.90;999.90;;;;;;;;;;5125028;27;20391;-71
2022/06/29 03:09:00;;;;;;;1999.90;999.90;;;;;;;;;;5124049;27;20384;-70
2022/06/29 03:11:28;;;;;;;1999.90;999.90;;;;;;;;;;5121642;27;20508;-71
2022/06/29 03:13:56;;;;;;;1999.90;999.90;;;;;;;;;;5121432;27;21248;-71
2022/06/29 03:16:24;;;;;;;1999.90;999.90;;;;;;;;;;5107025;27;20380;-70
2022/06/29 03:18:52;;;;;;;1999.90;999.90;;;;;;;;;;5120851;27;20777;-70
2022/06/29 03:21:21;;;;;;;1999.90;999.90;;;;;;;;;;5104509;27;20876;-71
2022/06/29 03:23:49;;;;;;;1999.90;999.90;;;;;;;;;;5123280;27;20535;-70
2022/06/29 03:26:18;;;;;;;1999.90;999.90;;;;;;;;;;5124685;27;20410;-70
2022/06/29 03:28:52;;;;;;;1999.90;999.90;;;;;;;;;;5141816;27;20461;-71
2022/06/29 03:31:20;;;;;;;1999.90;999.90;;;;;;;;;;5142777;27;20400;-70
2022/06/29 03:33:48;;;;;;;1999.90;999.90;;;;;;;;;;5143192;27;21293;-71
2022/06/29 03:36:16;;;;;;;1999.90;999.90;;;;;;;;;;5123910;27;20416;-70
2022/06/29 03:38:46;;;;;;;1999.90;999.90;;;;;;;;;;5142823;27;20388;-70
2022/06/29 03:41:13;;;;;;;1999.90;999.90;;;;;;;;;;5121351;27;20404;-70
2022/06/29 03:43:41;;;;;;;1999.90;999.90;;;;;;;;;;5124255;27;20457;-70
2022/06/29 03:46:09;;;;;;;1999.90;999.90;;;;;;;;;;5122632;27;21378;-70
2022/06/29 03:48:37;;;;;;;1999.90;999.90;;;;;;;;;;5126902;27;20480;-69
2022/06/29 03:51:05;;;;;;;1999.90;999.90;;;;;;;;;;5143033;27;20510;-70
2022/06/29 03:53:33;;;;;;;1999.90;999.90;;;;;;;;;;5143875;27;20390;-69
2022/06/29 03:56:02;;;;;;;1999.90;999.90;;;;;;;;;;5127194;27;20422;-70
2022/06/29 03:58:30;;;;;;;1999.90;999.90;;;;;;;;;;5128578;27;20441;-70
2022/06/29 04:00:58;;;;;;;1999.90;999.90;;;;;;;;;;5137307;27;20469;-69
2022/06/29 04:03:26;;;;;;;1999.90;999.90;;;;;;;;;;5105318;27;20493;-73
2022/06/29 04:05:54;;;;;;;1999.90;999.90;;;;;;;;;;5136238;27;20391;-73
2022/06/29 04:08:22;;;;;;;1999.90;999.90;;;;;;;;;;5135458;27;20384;-72
2022/06/29 04:10:50;;;;;;;1999.90;999.90;;;;;;;;;;5141978;27;20486;-72
2022/06/29 04:13:19;;;;;;;1999.90;999.90;;;;;;;;;;5142079;27;20459;-73
2022/06/29 04:15:47;;;;;;;1999.90;999.90;;;;;;;;;;5139343;27;20408;-73
2022/06/29 04:18:15;;;;;;;1999.90;999.90;;;;;;;;;;5125573;27;20384;-72
2022/06/29 04:23:28;;;;;;;1999.90;999.90;;;;;;;;;;5126469;27;20502;-73
2022/06/29 04:25:56;;;;;;;1999.90;999.90;;;;;;;;;;5121440;27;20380;-73
2022/06/29 04:28:25;;;;;;;1999.90;999.90;;;;;;;;;;5123456;27;20491;-73
2022/06/29 04:30:53;;;;;;;1999.90;999.90;;;;;;;;;;5123811;27;20408;-73
2022/06/29 04:33:21;;;;;;;1999.90;999.90;;;;;;;;;;5145109;27;20388;-73
2022/06/29 04:35:48;;;;;;;1999.90;999.90;;;;;;;;;;5122907;27;20407;-73
2022/06/29 04:38:16;;;;;;;1999.90;999.90;;;;;;;;;;5126043;27;20380;-73
2022/06/29 04:40:44;;;;;;;1999.90;999.90;;;;;;;;;;5141666;27;20415;-73
2022/06/29 04:43:12;;;;;;;1999.90;999.90;;;;;;;;;;5125215;27;20407;-73
2022/06/29 04:48:26;;;;;;;1999.90;999.90;;;;;;;;;;5120900;27;20396;-74
2022/06/29 04:50:54;;;;;;;1999.90;999.90;;;;;;;;;;5138792;27;21805;-73
2022/06/29 04:53:22;;;;;;;1999.90;999.90;;;;;;;;;;5122049;27;20453;-73
2022/06/29 04:55:50;;;;;;;1999.90;999.90;;;;;;;;;;5136726;27;20491;-73
2022/06/29 04:58:18;;;;;;;1999.90;999.90;;;;;;;;;;5106755;27;20399;-74
2022/06/29 05:00:47;;;;;;;1999.90;999.90;;;;;;;;;;5121062;27;20508;-73
2022/06/29 05:03:15;;;;;;;1999.90;999.90;;;;;;;;;;5103040;27;20400;-74
2022/06/29 05:05:43;;;;;;;1999.90;999.90;;;;;;;;;;5108115;27;20392;-74
2022/06/29 05:08:11;;;;;;;1999.90;999.90;;;;;;;;;;5127874;27;20471;-75
2022/06/29 05:10:39;;;;;;;1999.90;999.90;;;;;;;;;;5126655;27;20415;-74
2022/06/29 05:13:08;;;;;;;1999.90;999.90;;;;;;;;;;5123954;27;21294;-73
2022/06/29 05:15:36;;;;;;;1999.90;999.90;;;;;;;;;;5119249;27;21050;-73
2022/06/29 05:18:06;;;;;;;1999.90;999.90;;;;;;;;;;5147246;27;20384;-72
2022/06/29 05:20:34;;;;;;;1999.90;999.90;;;;;;;;;;5145998;27;21243;-74
2022/06/29 05:23:04;;;;;;;1999.90;999.90;;;;;;;;;;5126255;27;20400;-73
2022/06/29 05:25:32;;;;;;;1999.90;999.90;;;;;;;;;;5145048;27;20399;-73
2022/06/29 05:28:00;;;;;;;1999.90;999.90;;;;;;;;;;5128368;27;20468;-73
2022/06/29 05:30:28;;;;;;;1999.90;999.90;;;;;;;;;;5145297;27;20400;-73
2022/06/29 05:32:56;;;;;;;1999.90;999.90;;;;;;;;;;5145014;27;20408;-73
2022/06/29 05:35:25;;;;;;;1999.90;999.90;;;;;;;;;;5128778;27;20487;-73
2022/06/29 05:37:54;;;;;;;1999.90;999.90;;;;;;;;;;5147549;27;21598;-73
2022/06/29 05:40:22;;;;;;;1999.90;999.90;;;;;;;;;;5126911;27;20402;-73
2022/06/29 05:42:52;;;;;;;1999.90;999.90;;;;;;;;;;5110171;27;21365;-73
2022/06/29 05:45:20;;;;;;;1999.90;999.90;;;;;;;;;;5146042;27;20868;-73
2022/06/29 05:47:49;;;;;;;1999.90;999.90;;;;;;;;;;5146072;27;20432;-74
2022/06/29 05:50:17;;;;;;;1999.90;999.90;;;;;;;;;;5145373;27;20510;-73
2022/06/29 05:52:46;;;;;;;1999.90;999.90;;;;;;;;;;5142895;27;20887;-73
2022/06/29 05:55:14;;;;;;;1999.90;999.90;;;;;;;;;;5144802;27;21317;-74
2022/06/29 05:57:42;;;;;;;1999.90;999.90;;;;;;;;;;5146278;27;20394;-74
2022/06/29 06:00:11;;;;;;;1999.90;999.90;;;;;;;;;;5127931;27;20487;-72
2022/06/29 06:02:39;;;;;;;1999.90;999.90;;;;;;;;;;5145671;27;20457;-72
2022/06/29 06:05:07;;;;;;;1999.90;999.90;;;;;;;;;;5146903;27;20395;-71
2022/06/29 06:07:35;;;;;;;1999.90;999.90;;;;;;;;;;5128826;27;20410;-72
2022/06/29 06:10:05;;;;;;;1999.90;999.90;;;;;;;;;;5141287;27;20399;-72
2022/06/29 06:12:33;;;;;;;1999.90;999.90;;;;;;;;;;5125331;27;20382;-71
2022/06/29 06:15:01;;;;;;;1999.90;999.90;;;;;;;;;;5145168;27;21154;-71
2022/06/29 06:17:29;;;;;;;1999.90;999.90;;;;;;;;;;5127627;27;20384;-75
2022/06/29 06:20:02;;;;;;;1999.90;999.90;;;;;;;;;;5127790;27;20412;-76
2022/06/29 06:22:30;;;;;;;1999.90;999.90;;;;;;;;;;5145001;27;20380;-75
2022/06/29 06:24:58;;;;;;;1999.90;999.90;;;;;;;;;;5127978;27;20476;-74
2022/06/29 06:27:28;;;;;;;1999.90;999.90;;;;;;;;;;5126432;27;20402;-72
2022/06/29 06:29:56;;;;;;;1999.90;999.90;;;;;;;;;;5145204;27;20943;-71
2022/06/29 06:32:24;;;;;;;1999.90;999.90;;;;;;;;;;5125956;27;21308;-72
2022/06/29 06:34:52;;;;;;;1999.90;999.90;;;;;;;;;;5146803;27;20510;-72
2022/06/29 06:37:20;;;;;;;1999.90;999.90;;;;;;;;;;5128194;27;20400;-72
2022/06/29 06:42:31;;;;;;;1999.90;999.90;;;;;;;;;;5121374;27;21232;-72
2022/06/29 06:45:03;;;;;;;1999.90;999.90;;;;;;;;;;5109656;27;20476;-72
2022/06/29 06:47:30;;;;;;;1999.90;999.90;;;;;;;;;;5126949;27;21189;-72
2022/06/29 06:49:58;;;;;;;1999.90;999.90;;;;;;;;;;5127657;27;21356;-72
2022/06/29 06:52:26;;;;;;;1999.90;999.90;;;;;;;;;;5140381;27;20384;-72
2022/06/29 06:54:54;;;;;;;1999.90;999.90;;;;;;;;;;5109113;27;20943;-71
2022/06/29 06:57:22;;;;;;;1999.90;999.90;;;;;;;;;;5145397;27;21277;-72
2022/06/29 06:59:53;;;;;;;1999.90;999.90;;;;;;;;;;5128587;27;20989;-72
2022/06/29 07:02:21;;;;;;;1999.90;999.90;;;;;;;;;;5122926;27;21134;-71
2022/06/29 07:04:49;;;;;;;1999.90;999.90;;;;;;;;;;5127168;27;20438;-72
2022/06/29 07:07:17;;;;;;;1999.90;999.90;;;;;;;;;;5126778;27;20475;-72
2022/06/29 07:09:45;;;;;;;1999.90;999.90;;;;;;;;;;5128285;27;20415;-72
2022/06/29 07:12:12;;;;;;;1999.90;999.90;;;;;;;;;;5124411;27;20415;-72
2022/06/29 07:14:40;;;;;;;1999.90;999.90;;;;;;;;;;5127259;27;20380;-72
2022/06/29 07:17:09;;;;;;;1999.90;999.90;;;;;;;;;;5127432;27;20487;-71
2022/06/29 07:19:37;;;;;;;1999.90;999.90;;;;;;;;;;5127427;27;20400;-72
2022/06/29 07:22:05;;;;;;;1999.90;999.90;;;;;;;;;;5141882;27;20400;-71
2022/06/29 07:24:33;;;;;;;1999.90;999.90;;;;;;;;;;5127137;27;20842;-72
2022/06/29 07:27:01;;;;;;;1999.90;999.90;;;;;;;;;;5146196;27;20396;-72
2022/06/29 07:29:29;;;;;;;1999.90;999.90;;;;;;;;;;5145798;27;20412;-72
2022/06/29 07:31:57;;;;;;;1999.90;999.90;;;;;;;;;;5143759;27;20399;-72
2022/06/29 07:34:26;;;;;;;1999.90;999.90;;;;;;;;;;5145261;27;20391;-72
2022/06/29 07:36:54;;;;;;;1999.90;999.90;;;;;;;;;;5146512;27;20999;-72
2022/06/29 07:39:22;;;;;;;1999.90;999.90;;;;;;;;;;5145909;27;20414;-71
2022/06/29 07:41:56;;;;;;;1999.90;999.90;;;;;;;;;;5124733;27;20380;-72
2022/06/29 07:44:24;;;;;;;1999.90;999.90;;;;;;;;;;5145364;27;20400;-72
2022/06/29 07:46:52;;;;;;;1999.90;999.90;;;;;;;;;;5145985;27;20891;-71
2022/06/29 07:49:20;;;;;;;1999.90;999.90;;;;;;;;;;5127475;27;20432;-72
2022/06/29 07:51:49;;;;;;;1999.90;999.90;;;;;;;;;;5144630;27;20392;-72
2022/06/29 07:54:17;;;;;;;1999.90;999.90;;;;;;;;;;5108814;27;20400;-72
2022/06/29 07:56:45;;;;;;;1999.90;999.90;;;;;;;;;;5145167;27;20388;-72
2022/06/29 07:59:33;;;;;;;1999.90;999.90;;;;;;;;;;5146734;27;20414;-72
2022/06/29 08:02:00;;;;;;;1999.90;999.90;;;;;;;;;;5124700;27;20411;-71
2022/06/29 08:04:28;;;;;;;1999.90;999.90;;;;;;;;;;5144795;27;20531;-72
2022/06/29 08:07:18;;;;;;;1999.90;999.90;;;;;;;;;;5126528;27;20400;-72
2022/06/29 08:09:45;;;;;;;1999.90;999.90;;;;;;;;;;5146397;27;20460;-72
2022/06/29 08:12:15;;;;;;;1999.90;999.90;;;;;;;;;;5106384;27;21016;-71
2022/06/29 08:14:43;;;;;;;1999.90;999.90;;;;;;;;;;5126556;27;20392;-72
2022/06/29 08:17:11;;;;;;;1999.90;999.90;;;;;;;;;;5126482;27;20431;-72
2022/06/29 08:19:38;;;;;;;1999.90;999.90;;;;;;;;;;5145460;27;20395;-71
2022/06/29 08:22:06;;;;;;;1999.90;999.90;;;;;;;;;;5141269;27;20410;-72
2022/06/29 08:24:35;;;;;;;1999.90;999.90;;;;;;;;;;5144333;27;20419;-71
2022/06/29 08:27:04;;;;;;;1999.90;999.90;;;;;;;;;;5127085;27;20878;-72
2022/06/29 08:29:52;;;;;;;1999.90;999.90;;;;;;;;;;5110181;27;20500;-72
2022/06/29 08:32:20;;;;;;;1999.90;999.90;;;;;;;;;;5142608;27;21272;-72
2022/06/29 08:34:48;;;;;;;1999.90;999.90;;;;;;;;;;5129921;27;20388;-72
2022/06/29 08:37:16;;;;;;;1999.90;999.90;;;;;;;;;;5149150;27;20380;-72
2022/06/29 08:39:45;;;;;;;1999.90;999.90;;;;;;;;;;5122943;27;20423;-72
2022/06/29 08:42:14;;;;;;;1999.90;999.90;;;;;;;;;;5127310;27;20444;-73
2022/06/29 08:44:42;;;;;;;1999.90;999.90;;;;;;;;;;5148578;27;20394;-72
2022/06/29 08:47:10;;;;;;;1999.90;999.90;;;;;;;;;;5148071;27;20429;-72
2022/06/29 08:49:39;;;;;;;1999.90;999.90;;;;;;;;;;5148675;27;20464;-72
2022/06/29 08:52:07;;;;;;;1999.90;999.90;;;;;;;;;;5127563;27;20380;-72
2022/06/29 08:54:37;;;;;;;1999.90;999.90;;;;;;;;;;5147486;27;20383;-72
2022/06/29 08:57:07;;;;;;;1999.90;999.90;;;;;;;;;;5128185;27;20864;-72
2022/06/29 08:59:35;;;;;;;1999.90;999.90;;;;;;;;;;5129781;27;20388;-73
2022/06/29 09:02:23;;;;;;;1999.90;999.90;;;;;;;;;;5138986;27;20383;-72
2022/06/29 09:04:53;;;;;;;1999.90;999.90;;;;;;;;;;5143461;27;20392;-71
2022/06/29 09:07:21;;;;;;;1999.90;999.90;;;;;;;;;;5145216;27;20462;-72
2022/06/29 09:09:59;;;;;;;1999.90;999.90;;;;;;;;;;5147089;27;20484;-72
2022/06/29 09:12:29;;;;;;;1999.90;999.90;;;;;;;;;;5126922;27;20407;-72
2022/06/29 09:14:58;;;;;;;1999.90;999.90;;;;;;;;;;5129105;27;20388;-73
2022/06/29 09:17:25;;;;;;;1999.90;999.90;;;;;;;;;;5148523;27;20480;-73
2022/06/29 09:19:54;;;;;;;1999.90;999.90;;;;;;;;;;5147218;27;21253;-70
2022/06/29 09:22:42;;;;;;;1999.90;999.90;;;;;;;;;;5126672;27;20395;-71
2022/06/29 09:25:21;;;;;;;1999.90;999.90;;;;;;;;;;5110962;27;20388;-72
2022/06/29 09:27:55;;;;;;;1999.90;999.90;;;;;;;;;;5146955;27;20380;-72
2022/06/29 09:30:26;;;;;;;1999.90;999.90;;;;;;;;;;5141860;27;20430;-72
2022/06/29 09:33:04;;;;;;;1999.90;999.90;;;;;;;;;;5125378;27;20505;-72
2022/06/29 09:35:32;;;;;;;1999.90;999.90;;;;;;;;;;5144028;27;20949;-72
2022/06/29 09:38:19;;;;;;;1999.90;999.90;;;;;;;;;;5127728;27;20956;-72
2022/06/29 09:40:58;;;;;;;1999.90;999.90;;;;;;;;;;5143182;27;20407;-72
2022/06/29 09:43:27;;;;;;;1999.90;999.90;;;;;;;;;;5144643;27;20415;-72
2022/06/29 09:45:55;;;;;;;1999.90;999.90;;;;;;;;;;5142268;27;21292;-72
2022/06/29 09:48:24;;;;;;;1999.90;999.90;;;;;;;;;;5125806;27;20884;-72
2022/06/29 09:50:52;;;;;;;1999.90;999.90;;;;;;;;;;5125788;27;20825;-72
2022/06/29 09:53:25;;;;;;;1999.90;999.90;;;;;;;;;;5143011;27;20991;-72
2022/06/29 09:55:54;;;;;;;1999.90;999.90;;;;;;;;;;5125849;27;20909;-71
2022/06/29 09:58:25;;;;;;;1999.90;999.90;;;;;;;;;;5127636;27;20907;-72
2022/06/29 10:03:41;;;;;;;1999.90;999.90;;;;;;;;;;5148523;27;20390;-71
2022/06/29 10:06:10;;;;;;;1999.90;999.90;;;;;;;;;;5157212;27;20411;-72
2022/06/29 10:08:38;;;;;;;1999.90;999.90;;;;;;;;;;5139864;27;20441;-72
2022/06/29 10:13:54;;;;;;;1999.90;999.90;;;;;;;;;;5118249;27;20390;-71
2022/06/29 10:16:29;;;;;;;1999.90;999.90;;;;;;;;;;5131989;27;20445;-71
2022/06/29 10:19:08;;;;;;;1999.90;999.90;;;;;;;;;;5127262;27;20390;-72
2022/06/29 10:21:36;;;;;;;1999.90;999.90;;;;;;;;;;5060413;27;1795942;-71
2022/06/29 10:24:04;;;;;;;1999.90;999.90;;;;;;;;;;5146209;27;20423;-72
2022/06/29 10:26:39;;;;;;;1999.90;999.90;;;;;;;;;;5146975;27;20388;-71
2022/06/29 10:29:25;;;;;;;1999.90;999.90;;;;;;;;;;5147077;27;20437;-72
2022/06/29 10:32:14;;;;;;;1999.90;999.90;;;;;;;;;;5143571;27;20457;-71
2022/06/29 10:37:32;;;;;;;1999.90;999.90;;;;;;;;;;5125736;27;20383;-72
2022/06/29 10:40:04;;;;;;;1999.90;999.90;;;;;;;;;;5143154;27;21238;-71
2022/06/29 10:45:25;;;;;;;1999.90;999.90;;;;;;;;;;5125134;27;20459;-71
2022/06/29 10:48:08;;;;;;;1999.90;999.90;;;;;;;;;;5143724;27;20384;-72
2022/06/29 10:50:38;;;;;;;1999.90;999.90;;;;;;;;;;5122242;27;20476;-71
2022/06/29 10:53:07;;;;;;;1999.90;999.90;;;;;;;;;;5125008;27;20407;-71
2022/06/29 10:55:36;;;;;;;1999.90;999.90;;;;;;;;;;5143536;27;20864;-71
2022/06/29 10:58:04;;;;;;;1999.90;999.90;;;;;;;;;;5127410;27;20919;-71
2022/06/29 11:00:34;;;;;;;1999.90;999.90;;;;;;;;;;5145475;27;20396;-70
2022/06/29 11:03:09;;;;;;;1999.90;999.90;;;;;;;;;;5145391;27;20811;-69
2022/06/29 11:12:01;;;;;;;1999.90;999.90;;;;;;;;;;5127739;27;20372;-70
2022/06/29 11:13:59;;;;;;;1999.90;999.90;;;;;;;;;;5125734;27;20556;-71
2022/06/29 11:16:28;;;;;;;1999.90;999.90;;;;;;;;;;5127293;27;20394;-71
2022/06/29 11:18:56;;;;;;;1999.90;999.90;;;;;;;;;;5111052;27;20940;-72
2022/06/29 11:21:28;;;;;;;1999.90;999.90;;;;;;;;;;5123379;27;21011;-72
2022/06/29 11:23:57;;;;;;;1999.90;999.90;;;;;;;;;;5145865;27;20404;-72
2022/06/29 11:26:26;;;;;;;1999.90;999.90;;;;;;;;;;5127206;27;20475;-71
2022/06/29 11:28:54;;;;;;;1999.90;999.90;;;;;;;;;;5126100;27;20419;-71
2022/06/29 11:31:22;;;;;;;1999.90;999.90;;;;;;;;;;5123654;27;20935;-72
2022/06/29 11:33:52;;;;;;;1999.90;999.90;;;;;;;;;;5145881;27;20498;-72
2022/06/29 11:36:21;;;;;;;1999.90;999.90;;;;;;;;;;5126765;27;20483;-72
2022/06/29 11:38:51;;;;;;;1999.90;999.90;;;;;;;;;;5127545;27;20881;-71
2022/06/29 11:41:20;;;;;;;1999.90;999.90;;;;;;;;;;5140345;27;20398;-71
2022/06/29 11:44:01;;;;;;;1999.90;999.90;;;;;;;;;;5108545;27;20404;-71
2022/06/29 11:46:31;;;;;;;1999.90;999.90;;;;;;;;;;5125445;27;20384;-72
2022/06/29 11:51:51;;;;;;;1999.90;999.90;;;;;;;;;;5125559;27;20387;-70
2022/06/29 11:54:33;;;;;;;1999.90;999.90;;;;;;;;;;5145886;27;20410;-71
2022/06/29 11:57:04;;;;;;;1999.90;999.90;;;;;;;;;;5146280;27;20396;-71
2022/06/29 11:59:32;;;;;;;1999.90;999.90;;;;;;;;;;5145954;27;20453;-71
2022/06/29 12:02:00;;;;;;;1999.90;999.90;;;;;;;;;;5143803;27;20772;-71
2022/06/29 12:04:29;;;;;;;1999.90;999.90;;;;;;;;;;5142834;27;20531;-71
2022/06/29 12:07:07;;;;;;;1999.90;999.90;;;;;;;;;;5126896;27;20380;-72
2022/06/29 12:09:38;;;;;;;1999.90;999.90;;;;;;;;;;5129343;27;20402;-72
2022/06/29 12:12:06;;;;;;;1999.90;999.90;;;;;;;;;;5127355;27;20491;-71
2022/06/29 12:14:34;;;;;;;1999.90;999.90;;;;;;;;;;5149385;27;20452;-72
2022/06/29 12:17:02;;;;;;;1999.90;999.90;;;;;;;;;;5148174;27;20389;-72
2022/06/29 12:19:30;;;;;;;1999.90;999.90;;;;;;;;;;5149078;27;20408;-72
2022/06/29 12:21:58;;;;;;;1999.90;999.90;;;;;;;;;;5127303;27;20424;-72
2022/06/29 12:24:27;;;;;;;1999.90;999.90;;;;;;;;;;5148346;27;20411;-72
2022/06/29 12:26:56;;;;;;;1999.90;999.90;;;;;;;;;;5148927;27;20396;-70
2022/06/29 12:29:24;;;;;;;1999.90;999.90;;;;;;;;;;5147139;27;20412;-71
2022/06/29 12:31:56;;;;;;;1999.90;999.90;;;;;;;;;;5127738;27;20384;-71
2022/06/29 12:34:24;;;;;;;1999.90;999.90;;;;;;;;;;5130177;27;20479;-72
2022/06/29 12:36:57;;;;;;;1999.90;999.90;;;;;;;;;;5130909;27;20403;-71
2022/06/29 12:39:25;;;;;;;1999.90;999.90;;;;;;;;;;5130839;27;20386;-71
2022/06/29 12:41:53;;;;;;;1999.90;999.90;;;;;;;;;;5125070;27;20939;-71
2022/06/29 12:44:23;;;;;;;1999.90;999.90;;;;;;;;;;5146186;27;20403;-71
2022/06/29 12:46:52;;;;;;;1999.90;999.90;;;;;;;;;;5128186;27;20896;-72
2022/06/29 12:49:20;;;;;;;1999.90;999.90;;;;;;;;;;5147252;27;21668;-71
2022/06/29 12:51:47;;;;;;;1999.90;999.90;;;;;;;;;;5144720;27;20388;-71
2022/06/29 12:54:17;;;;;;;1999.90;999.90;;;;;;;;;;5128287;27;20854;-71
2022/06/29 12:56:45;;;;;;;1999.90;999.90;;;;;;;;;;5129074;27;21130;-72
2022/06/29 12:59:14;;;;;;;1999.90;999.90;;;;;;;;;;5130517;27;20411;-72
2022/06/29 13:01:44;;;;;;;1999.90;999.90;;;;;;;;;;5126934;27;20396;-72
2022/06/29 13:04:13;;;;;;;1999.90;999.90;;;;;;;;;;5128194;27;20396;-71
2022/06/29 13:06:41;;;;;;;1999.90;999.90;;;;;;;;;;5148292;27;20395;-71
2022/06/29 13:09:09;;;;;;;1999.90;999.90;;;;;;;;;;5127770;27;20943;-70
2022/06/29 13:11:37;;;;;;;1999.90;999.90;;;;;;;;;;5145237;27;20391;-71
2022/06/29 13:14:05;;;;;;;1999.90;999.90;;;;;;;;;;5129023;27;20491;-71
2022/06/29 13:16:33;;;;;;;1999.90;999.90;;;;;;;;;;5140938;27;20491;-70
2022/06/29 13:19:02;;;;;;;1999.90;999.90;;;;;;;;;;5146877;27;20387;-70
2022/06/29 13:21:30;;;;;;;1999.90;999.90;;;;;;;;;;5144424;27;21279;-70
2022/06/29 13:23:58;;;;;;;1999.90;999.90;;;;;;;;;;5140662;27;20407;-71
2022/06/29 13:26:26;;;;;;;1999.90;999.90;;;;;;;;;;5144882;27;20634;-71
2022/06/29 13:28:54;;;;;;;1999.90;999.90;;;;;;;;;;5127301;27;20408;-70
2022/06/29 13:31:22;;;;;;;1999.90;999.90;;;;;;;;;;5125391;27;20453;-71
2022/06/29 13:33:50;;;;;;;1999.90;999.90;;;;;;;;;;5128025;27;20439;-71
2022/06/29 13:36:19;;;;;;;1999.90;999.90;;;;;;;;;;5146294;27;20491;-70
2022/06/29 13:38:53;;;;;;;1999.90;999.90;;;;;;;;;;5145124;27;20411;-70
2022/06/29 13:41:21;;;;;;;1999.90;999.90;;;;;;;;;;5145110;27;20400;-71
2022/06/29 13:43:49;;;;;;;1999.90;999.90;;;;;;;;;;5146780;27;21810;-71
2022/06/29 13:46:17;;;;;;;1999.90;999.90;;;;;;;;;;5126129;27;20403;-71
2022/06/29 13:48:44;;;;;;;1999.90;999.90;;;;;;;;;;5126570;27;20396;-70
2022/06/29 13:51:12;;;;;;;1999.90;999.90;;;;;;;;;;5124684;27;20388;-71
2022/06/29 13:53:42;;;;;;;1999.90;999.90;;;;;;;;;;5124994;27;20431;-71
2022/06/29 13:56:10;;;;;;;1999.90;999.90;;;;;;;;;;5144181;27;20406;-70
2022/06/29 13:58:38;;;;;;;1999.90;999.90;;;;;;;;;;5146225;27;20392;-70
2022/06/29 14:01:06;;;;;;;1999.90;999.90;;;;;;;;;;5125823;27;20530;-69
2022/06/29 14:03:34;;;;;;;1999.90;999.90;;;;;;;;;;5126687;27;20422;-69
2022/06/29 14:06:02;;;;;;;1999.90;999.90;;;;;;;;;;5146166;27;20384;-71
2022/06/29 14:08:29;;;;;;;1999.90;999.90;;;;;;;;;;5146709;27;20396;-70
2022/06/29 14:11:20;;;;;;;1999.90;999.90;;;;;;;;;;5124942;27;20392;-70
2022/06/29 14:13:48;;;;;;;1999.90;999.90;;;;;;;;;;5126624;27;20392;-70
2022/06/29 14:16:16;;;;;;;1999.90;999.90;;;;;;;;;;5126596;27;20880;-71
2022/06/29 14:18:44;;;;;;;1999.90;999.90;;;;;;;;;;5128036;27;21653;-69
2022/06/29 14:21:12;;;;;;;1999.90;999.90;;;;;;;;;;5126787;27;20396;-70
2022/06/29 14:23:40;;;;;;;1999.90;999.90;;;;;;;;;;5143601;27;20461;-70
2022/06/29 14:26:08;;;;;;;1999.90;999.90;;;;;;;;;;5135322;27;20815;-70